Time;durP1;ratioP1;P1;durP2;ratioP2;P2;SDS_P1;SDS_P2;PMS_P1;PMS_P2;Temp;Humidity;BMP_temperature;BMP_pressure;BME280_temperature;BME280_humidity;BME280_pressure;Samples;Min_cycle;Max_cycle;Signal;HPM_P1;HPM_P2
2022/12/13 00:00:02;;;;;;;8.82;5.40;;;15.30;40.70;;;;;;6182701;23;45300;-71
2022/12/13 00:02:29;;;;;;;8.43;5.00;;;15.30;40.70;;;;;;6180635;23;45426;-71
2022/12/13 00:04:56;;;;;;;8.93;5.25;;;15.30;40.80;;;;;;6182796;23;45359;-71
2022/12/13 00:07:23;;;;;;;9.45;5.25;;;15.30;40.70;;;;;;6180668;23;45263;-71
2022/12/13 00:09:51;;;;;;;9.25;5.18;;;15.30;40.60;;;;;;6182370;23;45259;-70
2022/12/13 00:12:17;;;;;;;8.50;5.28;;;15.30;40.70;;;;;;6181607;23;48235;-71
2022/12/13 00:14:44;;;;;;;7.90;4.75;;;15.30;40.70;;;;;;6182688;23;45390;-71
2022/12/13 00:17:11;;;;;;;8.38;5.00;;;15.30;40.60;;;;;;6182392;23;45224;-71
2022/12/13 00:19:38;;;;;;;11.85;5.38;;;15.30;40.70;;;;;;6181317;23;45432;-70
2022/12/13 00:22:04;;;;;;;8.43;5.03;;;15.30;40.70;;;;;;6182378;23;47123;-71
2022/12/13 00:24:31;;;;;;;8.93;5.22;;;15.30;40.70;;;;;;6182199;23;45258;-72
2022/12/13 00:26:59;;;;;;;9.60;5.60;;;15.30;40.70;;;;;;6182547;23;45320;-71
2022/12/13 00:29:26;;;;;;;7.68;5.05;;;15.30;40.70;;;;;;6155719;23;45421;-71
2022/12/13 00:31:53;;;;;;;7.03;4.57;;;15.30;40.70;;;;;;6181648;23;46691;-71
2022/12/13 00:34:20;;;;;;;8.55;5.18;;;15.30;40.60;;;;;;6182340;23;45361;-71
2022/12/13 00:36:47;;;;;;;8.95;5.03;;;15.30;40.70;;;;;;6181634;23;45292;-70
2022/12/13 00:39:15;;;;;;;7.40;4.85;;;15.30;40.70;;;;;;6181673;23;45431;-71
2022/12/13 00:41:43;;;;;;;7.80;4.50;;;15.30;40.70;;;;;;6181156;23;46822;-70
2022/12/13 00:44:12;;;;;;;8.65;4.75;;;15.20;40.70;;;;;;6181832;23;45291;-73
2022/12/13 00:46:40;;;;;;;8.98;5.25;;;15.20;40.70;;;;;;6181976;23;45261;-71
2022/12/13 00:49:07;;;;;;;9.55;4.63;;;15.30;40.80;;;;;;6180857;23;45363;-71
2022/12/13 00:51:34;;;;;;;8.80;4.90;;;15.20;40.70;;;;;;6181451;23;46533;-71
2022/12/13 00:54:02;;;;;;;8.85;4.72;;;15.30;40.80;;;;;;6181302;23;45214;-71
2022/12/13 00:56:31;;;;;;;7.60;4.60;;;15.30;40.80;;;;;;6182382;23;45244;-70
2022/12/13 00:58:58;;;;;;;7.90;4.68;;;15.30;40.80;;;;;;6181463;23;45214;-71
2022/12/13 01:01:29;;;;;;;7.90;4.88;;;15.30;40.80;;;;;;6181179;23;47361;-71
2022/12/13 01:03:58;;;;;;;8.70;4.95;;;15.30;40.70;;;;;;6184138;23;45389;-71
2022/12/13 01:06:29;;;;;;;8.02;5.30;;;15.30;40.70;;;;;;6181262;23;45477;-71
2022/12/13 01:08:56;;;;;;;8.63;5.18;;;15.30;40.70;;;;;;6183024;23;45399;-70
2022/12/13 01:11:23;;;;;;;7.80;4.97;;;15.30;40.70;;;;;;6182808;23;45474;-71
2022/12/13 01:13:50;;;;;;;8.77;5.18;;;15.30;40.70;;;;;;6183502;23;45192;-71
2022/12/13 01:16:17;;;;;;;8.40;5.18;;;15.30;40.70;;;;;;6182804;23;45275;-71
2022/12/13 01:18:45;;;;;;;7.43;5.10;;;15.30;41.90;;;;;;6182509;23;45248;-71
2022/12/13 01:21:14;;;;;;;7.38;4.82;;;15.30;40.60;;;;;;6182778;23;46520;-71
2022/12/13 01:23:42;;;;;;;10.52;5.07;;;15.30;40.70;;;;;;6182761;23;45273;-71
2022/12/13 01:26:12;;;;;;;8.05;4.25;;;15.20;40.60;;;;;;6183541;23;45291;-71
2022/12/13 01:28:39;;;;;;;9.02;5.18;;;15.20;40.50;;;;;;6182419;23;45325;-70
2022/12/13 01:31:09;;;;;;;9.95;5.35;;;15.20;40.50;;;;;;6183369;23;47065;-71
2022/12/13 01:33:36;;;;;;;10.18;5.43;;;15.20;40.50;;;;;;6183573;23;45511;-71
2022/12/13 01:36:07;;;;;;;8.48;4.75;;;15.20;40.60;;;;;;6185938;23;45254;-71
2022/12/13 01:38:35;;;;;;;8.02;4.75;;;15.30;40.60;;;;;;6182875;22;45342;-71
2022/12/13 01:41:02;;;;;;;8.77;5.15;;;15.20;40.50;;;;;;6182538;23;46789;-71
2022/12/13 01:43:49;;;;;;;9.50;5.03;;;15.30;40.60;;;;;;6183493;23;45236;-71
2022/12/13 01:46:17;;;;;;;8.93;5.25;;;15.20;40.60;;;;;;6182940;23;45232;-70
2022/12/13 01:48:49;;;;;;;9.13;5.28;;;15.30;40.60;;;;;;6183126;23;45524;-71
2022/12/13 01:51:21;;;;;;;9.55;4.97;;;15.30;40.50;;;;;;6183144;23;46255;-71
2022/12/13 01:53:49;;;;;;;9.52;5.43;;;15.20;40.40;;;;;;6183208;23;45224;-71
2022/12/13 01:56:19;;;;;;;8.05;5.20;;;15.30;40.40;;;;;;6183294;23;45253;-71
2022/12/13 01:58:49;;;;;;;8.43;5.00;;;15.30;40.50;;;;;;6182160;23;45425;-71
2022/12/13 02:01:16;;;;;;;7.55;5.05;;;15.30;40.50;;;;;;6181375;23;46695;-71
2022/12/13 02:03:44;;;;;;;9.05;5.45;;;15.20;40.40;;;;;;6182676;23;45262;-71
2022/12/13 02:06:16;;;;;;;8.85;5.72;;;15.20;40.50;;;;;;6181318;23;45444;-71
2022/12/13 02:08:45;;;;;;;7.80;5.13;;;15.20;40.40;;;;;;6182527;23;45293;-70
2022/12/13 02:11:13;;;;;;;8.15;4.85;;;15.30;40.50;;;;;;6182560;23;46592;-71
2022/12/13 02:13:40;;;;;;;9.63;5.22;;;15.20;40.40;;;;;;6183422;23;45261;-71
2022/12/13 02:16:13;;;;;;;9.27;5.57;;;15.20;40.40;;;;;;6182406;23;45366;-71
2022/12/13 02:18:56;;;;;;;10.15;5.97;;;15.20;40.30;;;;;;6182871;23;45345;-71
2022/12/13 02:21:31;;;;;;;11.15;5.38;;;15.20;40.30;;;;;;6182216;23;46402;-71
2022/12/13 02:24:35;;;;;;;10.63;5.63;;;15.20;39.70;;;;;;6183179;23;45258;-71
2022/12/13 02:27:10;;;;;;;8.55;6.05;;;15.20;39.00;;;;;;6183012;23;45301;-71
2022/12/13 02:30:16;;;;;;;10.05;6.05;;;15.10;38.50;;;;;;6182703;23;45427;-72
2022/12/13 02:32:54;;;;;;;8.95;5.63;;;15.20;38.00;;;;;;6182933;23;46398;-72
2022/12/13 02:35:25;;;;;;;9.27;5.70;;;15.20;37.90;;;;;;6183439;23;45317;-71
2022/12/13 02:37:59;;;;;;;8.68;5.57;;;15.10;37.60;;;;;;6183068;23;45411;-71
2022/12/13 02:40:30;;;;;;;9.35;5.47;;;15.20;38.40;;;;;;6182823;23;45213;-71
2022/12/13 02:43:01;;;;;;;8.93;5.47;;;15.20;38.80;;;;;;6183080;23;45224;-71
2022/12/13 02:45:32;;;;;;;8.63;5.45;;;15.20;38.90;;;;;;6182088;23;45639;-71
2022/12/13 02:48:03;;;;;;;9.75;5.78;;;15.20;39.10;;;;;;6182565;23;45272;-71
2022/12/13 02:50:32;;;;;;;9.57;5.72;;;15.20;39.30;;;;;;6183180;23;45460;-71
2022/12/13 02:53:00;;;;;;;9.55;5.72;;;15.20;39.50;;;;;;6183182;23;46572;-71
2022/12/13 02:55:27;;;;;;;9.23;5.53;;;15.20;39.50;;;;;;6182913;23;45319;-72
2022/12/13 02:57:54;;;;;;;9.38;5.60;;;15.20;39.60;;;;;;6181944;23;45267;-71
2022/12/13 03:00:27;;;;;;;9.50;5.40;;;15.20;39.60;;;;;;6183236;23;45371;-71
2022/12/13 03:03:10;;;;;;;10.38;5.65;;;15.20;39.70;;;;;;6181205;23;45302;-71
2022/12/13 03:08:42;;;;;;;9.63;5.70;;;15.20;39.80;;;;;;6182327;23;45258;-71
2022/12/13 03:11:12;;;;;;;7.05;4.78;;;15.20;39.70;;;;;;6183637;23;45212;-71
2022/12/13 03:13:49;;;;;;;8.75;5.28;;;15.20;39.80;;;;;;6182708;23;46512;-71
2022/12/13 03:16:25;;;;;;;10.93;5.68;;;15.20;39.90;;;;;;6182986;23;45411;-71
2022/12/13 03:18:57;;;;;;;9.68;5.97;;;15.20;39.90;;;;;;6182353;23;45352;-72
2022/12/13 03:21:24;;;;;;;8.95;5.25;;;15.20;41.10;;;;;;6181927;23;45241;-71
2022/12/13 03:23:51;;;;;;;9.48;5.55;;;15.20;40.00;;;;;;6182672;23;46397;-71
2022/12/13 03:26:21;;;;;;;8.25;5.40;;;15.20;40.00;;;;;;6182449;23;45405;-71
2022/12/13 03:28:49;;;;;;;11.27;6.10;;;15.20;40.00;;;;;;6185136;23;45327;-71
2022/12/13 03:31:16;;;;;;;10.88;6.10;;;15.30;40.00;;;;;;6182350;23;45412;-72
2022/12/13 03:33:43;;;;;;;11.30;6.00;;;15.20;39.90;;;;;;6182727;23;48121;-72
2022/12/13 03:36:12;;;;;;;10.02;5.75;;;15.30;41.10;;;;;;6182198;23;45259;-71
2022/12/13 03:38:40;;;;;;;9.02;5.38;;;15.20;39.90;;;;;;6181123;23;45384;-72
2022/12/13 03:41:10;;;;;;;11.35;6.57;;;15.20;39.90;;;;;;6182749;23;45518;-71
2022/12/13 03:43:38;;;;;;;9.63;5.90;;;15.20;39.90;;;;;;6181809;23;45201;-71
2022/12/13 03:46:06;;;;;;;10.35;6.07;;;15.20;39.90;;;;;;6182219;23;45273;-71
2022/12/13 03:48:33;;;;;;;9.80;5.63;;;15.20;39.90;;;;;;6181723;23;45288;-71
2022/12/13 03:51:00;;;;;;;10.93;6.13;;;15.20;39.70;;;;;;6182360;23;45390;-71
2022/12/13 03:53:28;;;;;;;8.55;5.30;;;15.20;39.90;;;;;;6182880;23;46553;-71
2022/12/13 03:55:55;;;;;;;9.70;6.10;;;15.20;40.00;;;;;;6181871;23;45312;-71
2022/12/13 03:58:22;;;;;;;10.65;5.88;;;15.20;40.00;;;;;;6182222;23;45285;-71
2022/12/13 04:00:49;;;;;;;9.77;5.88;;;15.20;40.00;;;;;;6180031;23;45446;-72
2022/12/13 04:03:15;;;;;;;9.98;5.72;;;15.20;40.00;;;;;;6182639;23;45363;-71
2022/12/13 04:05:43;;;;;;;9.23;5.65;;;15.20;40.00;;;;;;6181253;23;45230;-72
2022/12/13 04:08:09;;;;;;;9.90;5.78;;;15.20;41.00;;;;;;6181510;23;45272;-71
2022/12/13 04:10:38;;;;;;;10.20;5.90;;;15.20;39.90;;;;;;6182985;23;45207;-71
2022/12/13 04:15:49;;;;;;;12.23;6.38;;;15.20;40.00;;;;;;6182829;23;45233;-72
2022/12/13 04:18:16;;;;;;;10.85;6.45;;;15.20;38.90;;;;;;6181321;23;45304;-72
2022/12/13 04:20:43;;;;;;;12.00;6.97;;;15.20;38.50;;;;;;6182462;23;45547;-71
2022/12/13 04:23:10;;;;;;;11.02;6.40;;;15.20;38.10;;;;;;6182070;23;46632;-72
2022/12/13 04:25:39;;;;;;;10.73;6.38;;;15.10;37.50;;;;;;6181596;23;45361;-72
2022/12/13 04:28:06;;;;;;;10.98;6.15;;;15.10;37.50;;;;;;6181554;23;45197;-72
2022/12/13 04:30:34;;;;;;;11.75;6.45;;;15.10;37.20;;;;;;6181691;23;45423;-72
2022/12/13 04:33:01;;;;;;;9.80;6.78;;;15.10;36.80;;;;;;6182883;23;46475;-71
2022/12/13 04:35:28;;;;;;;12.40;7.18;;;15.10;37.00;;;;;;6182725;23;45290;-71
2022/12/13 04:37:55;;;;;;;11.05;6.25;;;15.10;36.70;;;;;;6182453;23;45340;-72
2022/12/13 04:40:22;;;;;;;10.38;6.53;;;15.10;36.60;;;;;;6183739;23;45523;-72
2022/12/13 04:42:50;;;;;;;12.10;6.90;;;15.10;36.50;;;;;;6183321;23;45399;-72
2022/12/13 04:45:18;;;;;;;11.48;6.90;;;15.00;36.30;;;;;;6183338;23;45664;-71
2022/12/13 04:47:45;;;;;;;10.30;6.15;;;15.00;36.40;;;;;;6182680;23;45334;-71
2022/12/13 04:50:12;;;;;;;11.35;6.47;;;15.00;36.80;;;;;;6183796;23;45167;-71
2022/12/13 04:52:39;;;;;;;11.80;7.03;;;15.00;38.10;;;;;;6182960;23;45600;-72
2022/12/13 04:55:07;;;;;;;11.27;6.43;;;15.00;37.50;;;;;;6183485;23;45292;-71
2022/12/13 04:57:34;;;;;;;11.40;7.10;;;15.00;37.00;;;;;;6183827;23;45325;-71
2022/12/13 05:00:03;;;;;;;12.63;6.47;;;15.00;36.70;;;;;;6182174;23;45404;-71
2022/12/13 05:02:30;;;;;;;11.38;6.60;;;15.00;36.30;;;;;;6183143;23;45252;-71
2022/12/13 05:04:57;;;;;;;11.25;7.22;;;15.00;36.10;;;;;;6182749;23;45289;-71
2022/12/13 05:07:25;;;;;;;13.05;7.25;;;15.00;36.10;;;;;;6182164;23;45308;-71
2022/12/13 05:09:52;;;;;;;12.30;7.28;;;15.00;35.90;;;;;;6182218;23;45209;-71
2022/12/13 05:12:19;;;;;;;13.38;7.57;;;14.90;35.60;;;;;;6182210;23;46900;-71
2022/12/13 05:14:46;;;;;;;12.55;7.55;;;15.00;35.40;;;;;;6183308;23;45301;-71
2022/12/13 05:17:14;;;;;;;12.23;7.40;;;15.00;35.60;;;;;;6182914;23;45357;-71
2022/12/13 05:19:41;;;;;;;11.77;6.40;;;14.90;35.20;;;;;;6183666;23;45389;-71
2022/12/13 05:22:14;;;;;;;12.60;7.38;;;15.00;35.30;;;;;;6183621;23;46552;-71
2022/12/13 05:24:41;;;;;;;12.65;7.15;;;14.90;35.30;;;;;;6184628;23;45177;-71
2022/12/13 05:27:08;;;;;;;13.05;7.65;;;14.90;35.10;;;;;;6183761;23;45400;-71
2022/12/13 05:29:35;;;;;;;12.48;7.35;;;14.90;35.00;;;;;;6182391;23;45388;-71
2022/12/13 05:32:02;;;;;;;12.00;7.28;;;14.90;35.10;;;;;;6183354;23;46575;-71
2022/12/13 05:34:30;;;;;;;12.00;7.13;;;14.90;35.20;;;;;;6182845;23;45320;-71
2022/12/13 05:36:57;;;;;;;12.27;7.15;;;14.90;34.80;;;;;;6182999;23;45388;-71
2022/12/13 05:39:24;;;;;;;12.93;7.90;;;14.90;34.90;;;;;;6182791;23;45404;-70
2022/12/13 05:41:53;;;;;;;14.18;8.13;;;14.90;35.10;;;;;;6182717;23;46361;-71
2022/12/13 05:44:20;;;;;;;11.30;6.93;;;14.90;34.80;;;;;;6182252;23;45179;-71
2022/12/13 05:46:47;;;;;;;11.48;7.35;;;14.80;34.60;;;;;;6182221;23;45384;-71
2022/12/13 05:49:13;;;;;;;11.95;7.78;;;14.90;34.40;;;;;;6181768;23;45210;-71
2022/12/13 05:51:43;;;;;;;14.63;8.68;;;14.90;34.30;;;;;;6181836;23;47517;-71
2022/12/13 05:54:09;;;;;;;15.38;8.30;;;14.90;34.10;;;;;;6182425;23;45351;-71
2022/12/13 05:56:36;;;;;;;16.05;8.73;;;14.90;35.20;;;;;;6182962;23;45461;-71
2022/12/13 05:59:03;;;;;;;15.85;7.93;;;14.90;34.10;;;;;;6182360;23;45450;-70
2022/12/13 06:01:30;;;;;;;14.32;7.97;;;14.90;34.00;;;;;;6181861;23;47869;-71
2022/12/13 06:03:57;;;;;;;13.50;8.10;;;14.80;34.00;;;;;;6182812;23;45413;-70
2022/12/13 06:06:24;;;;;;;12.10;7.38;;;14.90;34.00;;;;;;6181793;23;45398;-71
2022/12/13 06:08:52;;;;;;;16.40;8.45;;;14.80;34.10;;;;;;6180610;23;45257;-71
2022/12/13 06:11:19;;;;;;;14.00;7.70;;;14.80;34.30;;;;;;6181879;23;47281;-71
2022/12/13 06:13:51;;;;;;;12.63;7.50;;;14.80;34.20;;;;;;6182364;23;45240;-71
2022/12/13 06:16:18;;;;;;;13.15;7.75;;;14.90;34.30;;;;;;6182266;23;45288;-71
2022/12/13 06:18:45;;;;;;;12.82;7.07;;;14.80;34.20;;;;;;6181266;23;45371;-71
2022/12/13 06:21:12;;;;;;;12.70;7.55;;;14.80;34.20;;;;;;6181246;23;46313;-71
2022/12/13 06:23:39;;;;;;;12.50;7.60;;;14.80;34.20;;;;;;6182853;23;45281;-71
2022/12/13 06:26:07;;;;;;;12.63;7.60;;;14.80;34.10;;;;;;6182876;23;45262;-71
2022/12/13 06:28:34;;;;;;;15.27;8.35;;;14.80;34.00;;;;;;6182076;23;45356;-70
2022/12/13 06:31:01;;;;;;;13.70;8.02;;;14.80;34.00;;;;;;6182266;23;46670;-71
2022/12/13 06:33:28;;;;;;;14.88;8.05;;;14.80;34.00;;;;;;6182531;23;45369;-70
2022/12/13 06:35:57;;;;;;;13.43;7.93;;;14.80;33.80;;;;;;6180240;23;45198;-71
2022/12/13 06:38:25;;;;;;;13.20;7.72;;;14.80;33.80;;;;;;6180522;23;45352;-71
2022/12/13 06:40:52;;;;;;;13.90;7.80;;;14.90;33.80;;;;;;6182120;23;46981;-71
2022/12/13 06:43:20;;;;;;;13.45;8.07;;;14.90;33.50;;;;;;6182786;23;45537;-71
2022/12/13 06:45:47;;;;;;;12.48;7.20;;;14.90;33.50;;;;;;6182013;23;45328;-71
2022/12/13 06:48:14;;;;;;;12.43;8.05;;;14.80;33.30;;;;;;6182551;23;45301;-70
2022/12/13 06:50:41;;;;;;;16.05;8.25;;;14.80;33.30;;;;;;6182423;23;47504;-70
2022/12/13 06:53:07;;;;;;;13.38;8.00;;;14.80;33.30;;;;;;6183036;23;45270;-70
2022/12/13 06:55:35;;;;;;;13.00;7.80;;;14.80;33.30;;;;;;6182181;23;45321;-71
2022/12/13 06:58:02;;;;;;;13.05;7.68;;;14.80;33.30;;;;;;6182343;23;45566;-70
2022/12/13 07:00:30;;;;;;;14.23;8.25;;;14.80;33.20;;;;;;6182398;23;47200;-70
2022/12/13 07:02:57;;;;;;;9.80;6.40;;;14.80;33.10;;;;;;6182742;23;45286;-70
2022/12/13 07:05:26;;;;;;;16.63;7.50;;;14.80;35.70;;;;;;6182979;23;45272;-71
2022/12/13 07:07:53;;;;;;;12.90;7.78;;;14.80;36.50;;;;;;6179945;23;45223;-70
2022/12/13 07:10:20;;;;;;;13.57;8.10;;;14.80;35.50;;;;;;6181531;23;48829;-71
2022/12/13 07:12:47;;;;;;;13.82;7.85;;;14.80;34.80;;;;;;6182469;23;45293;-70
2022/12/13 07:15:14;;;;;;;13.75;7.97;;;14.70;34.20;;;;;;6182110;23;45319;-71
2022/12/13 07:17:42;;;;;;;11.05;7.28;;;14.70;33.90;;;;;;6185957;23;45423;-70
2022/12/13 07:20:10;;;;;;;12.60;7.68;;;14.70;34.90;;;;;;6182558;23;47320;-71
2022/12/13 07:22:38;;;;;;;13.98;7.85;;;14.70;33.60;;;;;;6181947;23;45405;-70
2022/12/13 07:25:05;;;;;;;13.13;7.75;;;14.70;33.30;;;;;;6182241;23;45432;-71
2022/12/13 07:27:32;;;;;;;15.93;7.93;;;14.70;33.00;;;;;;6182572;23;45445;-71
2022/12/13 07:29:59;;;;;;;15.82;8.20;;;14.70;33.00;;;;;;6180143;23;47874;-70
2022/12/13 07:32:26;;;;;;;12.63;7.47;;;14.70;32.90;;;;;;6182377;23;45408;-70
2022/12/13 07:34:54;;;;;;;12.02;7.40;;;14.70;32.90;;;;;;6182325;23;45458;-70
2022/12/13 07:37:21;;;;;;;15.60;8.60;;;14.70;32.80;;;;;;6182891;23;45261;-71
2022/12/13 07:39:48;;;;;;;13.68;7.28;;;14.60;32.80;;;;;;6181356;23;47107;-71
2022/12/13 07:42:14;;;;;;;13.20;8.18;;;14.60;32.90;;;;;;6182550;23;46232;-71
2022/12/13 07:44:41;;;;;;;14.27;7.68;;;14.70;33.00;;;;;;6182737;23;45237;-70
2022/12/13 07:47:08;;;;;;;13.25;8.35;;;14.70;33.00;;;;;;6182034;23;45446;-70
2022/12/13 07:49:35;;;;;;;14.85;8.43;;;14.70;33.00;;;;;;6181854;23;47869;-71
2022/12/13 07:52:03;;;;;;;12.48;7.13;;;14.70;33.00;;;;;;6181735;23;45319;-71
2022/12/13 07:54:30;;;;;;;12.95;7.78;;;14.70;33.10;;;;;;6182803;23;45355;-71
2022/12/13 07:56:56;;;;;;;11.35;7.10;;;14.70;33.20;;;;;;6182332;23;45363;-70
2022/12/13 07:59:24;;;;;;;11.98;7.00;;;14.60;33.10;;;;;;6180903;23;47452;-71
2022/12/13 08:01:51;;;;;;;12.23;7.25;;;14.60;33.00;;;;;;6182520;23;46335;-71
2022/12/13 08:04:17;;;;;;;10.80;6.30;;;14.60;33.00;;;;;;6182491;23;45491;-70
2022/12/13 08:06:44;;;;;;;12.23;6.68;;;14.60;32.90;;;;;;6180999;23;45489;-70
2022/12/13 08:09:12;;;;;;;13.45;7.40;;;14.60;33.00;;;;;;6180914;23;47582;-70
2022/12/13 08:11:39;;;;;;;14.80;7.68;;;14.60;33.00;;;;;;6183227;23;45424;-70
2022/12/13 08:14:06;;;;;;;12.00;7.13;;;14.60;32.80;;;;;;6183280;23;45311;-70
2022/12/13 08:16:33;;;;;;;11.27;6.78;;;14.70;32.70;;;;;;6183425;23;45343;-71
2022/12/13 08:19:00;;;;;;;12.32;6.68;;;14.70;32.70;;;;;;6183002;23;48315;-70
2022/12/13 08:21:27;;;;;;;10.65;6.43;;;14.70;32.60;;;;;;6183310;23;45384;-71
2022/12/13 08:23:54;;;;;;;11.68;6.82;;;14.70;32.60;;;;;;6183226;23;45328;-70
2022/12/13 08:26:23;;;;;;;12.75;7.43;;;14.70;32.60;;;;;;6184158;23;45474;-71
2022/12/13 08:28:49;;;;;;;11.77;6.93;;;14.70;32.60;;;;;;6182263;23;45293;-71
2022/12/13 08:31:16;;;;;;;10.15;6.43;;;14.70;32.60;;;;;;6183661;23;45260;-71
2022/12/13 08:33:45;;;;;;;10.55;6.72;;;14.70;32.70;;;;;;6183966;23;45265;-71
2022/12/13 08:36:15;;;;;;;12.65;7.15;;;14.60;32.60;;;;;;6183271;23;45351;-71
2022/12/13 08:38:42;;;;;;;11.30;6.88;;;14.70;32.80;;;;;;6183237;23;46524;-71
2022/12/13 08:41:09;;;;;;;11.63;7.40;;;14.60;32.70;;;;;;6182673;23;46048;-71
2022/12/13 08:43:38;;;;;;;10.38;6.40;;;14.60;32.80;;;;;;6182208;23;45301;-72
2022/12/13 08:46:06;;;;;;;11.43;6.22;;;14.60;32.80;;;;;;6178783;23;45431;-71
2022/12/13 08:48:33;;;;;;;10.13;6.15;;;14.70;32.80;;;;;;6179371;23;46268;-71
2022/12/13 08:51:01;;;;;;;12.43;6.82;;;14.60;32.70;;;;;;6182205;23;45424;-71
2022/12/13 08:53:28;;;;;;;10.27;6.47;;;14.60;32.80;;;;;;6181857;23;45281;-71
2022/12/13 08:55:59;;;;;;;10.65;6.40;;;14.60;32.70;;;;;;6183040;23;45425;-71
2022/12/13 08:58:26;;;;;;;11.70;6.25;;;14.60;32.80;;;;;;6181446;23;47966;-71
2022/12/13 09:00:54;;;;;;;11.77;6.53;;;14.70;32.80;;;;;;6182331;23;45436;-71
2022/12/13 09:03:21;;;;;;;10.32;6.28;;;14.60;32.60;;;;;;6182727;23;45470;-71
2022/12/13 09:05:47;;;;;;;11.90;6.50;;;14.70;32.70;;;;;;6181624;23;45482;-71
2022/12/13 09:08:14;;;;;;;10.02;5.97;;;14.70;32.70;;;;;;6181493;23;47341;-71
2022/12/13 09:10:41;;;;;;;10.45;6.07;;;14.70;32.70;;;;;;6182642;23;45241;-71
2022/12/13 09:13:08;;;;;;;11.65;5.97;;;14.70;32.50;;;;;;6184433;23;45293;-72
2022/12/13 09:15:39;;;;;;;10.13;6.53;;;14.70;32.50;;;;;;6185327;23;45215;-71
2022/12/13 09:18:08;;;;;;;10.40;6.13;;;14.70;32.60;;;;;;6183265;23;46303;-71
2022/12/13 09:20:36;;;;;;;11.23;6.55;;;14.70;32.60;;;;;;6182679;23;45391;-71
2022/12/13 09:23:03;;;;;;;10.55;6.10;;;14.70;32.60;;;;;;6182929;23;45303;-72
2022/12/13 09:25:32;;;;;;;10.27;6.20;;;14.70;32.80;;;;;;6183512;23;45368;-71
2022/12/13 09:27:59;;;;;;;11.48;6.32;;;14.70;32.80;;;;;;6182973;23;45429;-71
2022/12/13 09:30:27;;;;;;;10.52;6.13;;;14.70;32.70;;;;;;6182430;23;45351;-71
2022/12/13 09:32:55;;;;;;;9.70;6.00;;;14.70;32.80;;;;;;6183184;23;45272;-72
2022/12/13 09:35:23;;;;;;;10.10;6.15;;;14.70;32.90;;;;;;6183431;23;45240;-71
2022/12/13 09:37:50;;;;;;;9.68;5.50;;;14.70;32.90;;;;;;6182782;23;45398;-70
2022/12/13 09:40:20;;;;;;;10.43;6.07;;;14.70;33.20;;;;;;6181831;23;45413;-70
2022/12/13 09:42:50;;;;;;;8.60;5.25;;;14.70;33.80;;;;;;6183633;23;45290;-71
2022/12/13 09:45:17;;;;;;;9.70;5.53;;;14.80;34.20;;;;;;6181509;23;45409;-71
2022/12/13 09:47:46;;;;;;;9.48;4.93;;;14.80;34.40;;;;;;6181027;23;46519;-71
2022/12/13 09:50:18;;;;;;;8.52;5.10;;;14.80;34.60;;;;;;6182156;23;45274;-70
2022/12/13 09:52:46;;;;;;;8.95;5.13;;;14.80;34.70;;;;;;6183621;23;45301;-70
2022/12/13 09:55:22;;;;;;;9.73;5.40;;;14.80;34.90;;;;;;6183705;23;45375;-71
2022/12/13 09:57:50;;;;;;;9.02;5.18;;;14.90;35.30;;;;;;6183197;23;45356;-71
2022/12/13 10:00:20;;;;;;;7.93;5.10;;;14.90;35.30;;;;;;6182482;23;45229;-70
2022/12/13 10:02:50;;;;;;;9.40;5.70;;;14.90;35.50;;;;;;6181164;23;45232;-70
2022/12/13 10:05:21;;;;;;;9.65;5.47;;;14.90;35.50;;;;;;6183545;23;45524;-71
2022/12/13 10:07:49;;;;;;;8.70;4.90;;;14.90;35.50;;;;;;6182894;23;47322;-72
2022/12/13 10:10:16;;;;;;;8.52;5.05;;;14.90;35.60;;;;;;6181926;23;45249;-71
2022/12/13 10:12:46;;;;;;;8.02;4.65;;;14.90;35.80;;;;;;6183403;23;45289;-71
2022/12/13 10:15:17;;;;;;;9.63;5.47;;;14.90;36.00;;;;;;6182543;23;45285;-71
2022/12/13 10:17:47;;;;;;;8.30;5.38;;;14.90;36.00;;;;;;6181894;23;46698;-70
2022/12/13 10:20:19;;;;;;;8.95;5.22;;;14.90;36.10;;;;;;6181246;23;45229;-71
2022/12/13 10:22:46;;;;;;;8.73;5.32;;;14.90;36.20;;;;;;6183320;23;45252;-71
2022/12/13 10:25:15;;;;;;;10.20;5.95;;;14.90;35.50;;;;;;6183123;23;45316;-72
2022/12/13 10:27:44;;;;;;;10.02;5.50;;;14.90;35.20;;;;;;6183355;23;48670;-71
2022/12/13 10:30:13;;;;;;;10.85;6.13;;;14.90;35.10;;;;;;6181838;23;45412;-71
2022/12/13 10:32:51;;;;;;;9.10;5.45;;;14.80;34.80;;;;;;6182612;23;45436;-71
2022/12/13 10:35:23;;;;;;;8.80;5.30;;;14.90;34.90;;;;;;6183609;23;45333;-72
2022/12/13 10:37:50;;;;;;;8.45;5.28;;;14.80;34.60;;;;;;6181976;23;46236;-70
2022/12/13 10:40:27;;;;;;;9.45;5.82;;;14.90;34.80;;;;;;6180490;23;45331;-70
2022/12/13 10:43:13;;;;;;;9.40;5.55;;;14.90;34.50;;;;;;6179270;23;45333;-71
2022/12/13 10:45:40;;;;;;;10.82;5.40;;;14.90;34.50;;;;;;6181887;23;45272;-70
2022/12/13 10:48:19;;;;;;;8.18;5.32;;;14.90;34.50;;;;;;6182711;23;45406;-70
2022/12/13 10:50:57;;;;;;;12.02;5.85;;;14.90;34.60;;;;;;6181270;23;46118;-71
2022/12/13 10:53:30;;;;;;;9.98;5.43;;;14.90;34.40;;;;;;6183286;23;45300;-72
2022/12/13 10:55:59;;;;;;;9.25;4.93;;;14.90;34.40;;;;;;6182563;23;45358;-71
2022/12/13 10:58:35;;;;;;;8.73;5.47;;;14.90;35.30;;;;;;6182491;23;46351;-70
2022/12/13 11:01:10;;;;;;;9.52;5.68;;;14.90;37.00;;;;;;6182677;23;45197;-73
2022/12/13 11:03:37;;;;;;;7.63;5.15;;;14.90;35.80;;;;;;6182870;23;45188;-71
2022/12/13 11:06:06;;;;;;;9.80;5.57;;;14.90;35.50;;;;;;6182979;23;45362;-71
2022/12/13 11:08:33;;;;;;;9.95;5.93;;;14.90;35.30;;;;;;6184057;23;46429;-71
2022/12/13 11:11:03;;;;;;;9.05;5.50;;;14.90;35.30;;;;;;6182837;23;45456;-70
2022/12/13 11:13:37;;;;;;;10.75;6.05;;;14.90;35.00;;;;;;6183092;23;45548;-71
2022/12/13 11:16:16;;;;;;;9.60;5.85;;;14.80;34.80;;;;;;6181878;23;45174;-71
2022/12/13 11:18:43;;;;;;;10.45;6.22;;;14.90;34.80;;;;;;6182260;23;47567;-71
2022/12/13 11:21:10;;;;;;;10.32;5.65;;;14.80;34.60;;;;;;6181726;23;45360;-71
2022/12/13 11:23:39;;;;;;;11.70;6.45;;;14.80;34.60;;;;;;6183183;23;45439;-71
2022/12/13 11:26:10;;;;;;;10.25;6.15;;;14.80;34.50;;;;;;6182254;23;45229;-71
2022/12/13 11:28:58;;;;;;;10.55;6.15;;;14.80;34.40;;;;;;6181920;23;47245;-71
2022/12/13 11:31:35;;;;;;;9.90;5.63;;;14.80;34.20;;;;;;6182926;23;45203;-71
2022/12/13 11:34:12;;;;;;;9.98;5.95;;;14.90;34.30;;;;;;6182714;23;45361;-71
2022/12/13 11:36:45;;;;;;;10.23;5.93;;;14.90;34.20;;;;;;6182252;22;45466;-71
2022/12/13 11:39:21;;;;;;;10.73;5.65;;;14.90;34.30;;;;;;6180278;23;47770;-71
2022/12/13 11:41:55;;;;;;;10.07;5.65;;;14.90;34.20;;;;;;6181936;23;45353;-71
2022/12/13 11:44:29;;;;;;;9.55;5.75;;;14.80;34.10;;;;;;6180712;23;45484;-70
2022/12/13 11:46:59;;;;;;;11.15;6.43;;;14.90;34.20;;;;;;6181633;23;45192;-71
2022/12/13 11:49:35;;;;;;;12.00;5.68;;;14.80;34.20;;;;;;6181401;23;46237;-71
2022/12/13 11:52:10;;;;;;;11.18;6.00;;;14.90;34.40;;;;;;6182135;23;45270;-71
2022/12/13 11:54:44;;;;;;;8.45;5.43;;;14.90;34.30;;;;;;6182758;23;45268;-71
2022/12/13 11:57:19;;;;;;;9.32;5.45;;;14.80;34.30;;;;;;6182421;23;45248;-71
2022/12/13 11:59:52;;;;;;;9.88;6.00;;;14.90;34.30;;;;;;6181762;23;46223;-71
2022/12/13 12:02:27;;;;;;;10.60;5.97;;;14.90;34.30;;;;;;6182564;23;45333;-71
2022/12/13 12:04:56;;;;;;;9.35;5.60;;;14.90;34.30;;;;;;6181983;23;45324;-71
2022/12/13 12:07:28;;;;;;;11.18;6.13;;;14.80;34.20;;;;;;6182415;23;45202;-71
2022/12/13 12:09:59;;;;;;;10.05;5.60;;;14.90;34.30;;;;;;6181225;23;46710;-72
2022/12/13 12:12:32;;;;;;;9.45;5.45;;;14.80;34.10;;;;;;6181772;23;45325;-71
2022/12/13 12:15:03;;;;;;;8.98;5.72;;;14.90;34.20;;;;;;6182340;23;45264;-71
2022/12/13 12:17:30;;;;;;;10.45;5.82;;;14.90;34.20;;;;;;6181340;23;45225;-71
2022/12/13 12:19:58;;;;;;;10.18;5.30;;;14.80;33.90;;;;;;6181372;23;47164;-71
2022/12/13 12:22:36;;;;;;;9.15;4.82;;;14.90;34.00;;;;;;6180978;23;45318;-72
2022/12/13 12:25:17;;;;;;;10.55;5.20;;;14.90;33.90;;;;;;6182380;23;45317;-71
2022/12/13 12:27:53;;;;;;;9.93;5.75;;;14.90;34.00;;;;;;6182763;23;45158;-71
2022/12/13 12:30:22;;;;;;;9.32;4.90;;;14.90;34.00;;;;;;6181182;23;46363;-71
2022/12/13 12:32:54;;;;;;;7.18;4.80;;;14.90;33.90;;;;;;6182457;23;45277;-72
2022/12/13 12:35:50;;;;;;;9.38;5.45;;;14.90;33.80;;;;;;6181792;23;45351;-73
2022/12/13 12:38:38;;;;;;;10.90;5.20;;;14.90;33.70;;;;;;6182655;23;45413;-70
2022/12/13 12:41:30;;;;;;;8.77;4.97;;;14.90;33.80;;;;;;6180201;23;47470;-71
2022/12/13 12:44:10;;;;;;;12.10;5.30;;;14.90;33.80;;;;;;6180582;23;45304;-71
2022/12/13 12:46:49;;;;;;;9.10;5.35;;;14.90;33.90;;;;;;6182284;23;45292;-71
2022/12/13 12:49:47;;;;;;;10.27;5.38;;;14.90;33.90;;;;;;6181737;23;45434;-71
2022/12/13 12:52:23;;;;;;;9.13;5.28;;;14.90;33.90;;;;;;6181927;23;46281;-71
2022/12/13 12:55:02;;;;;;;9.70;4.72;;;14.90;34.00;;;;;;6182883;23;45692;-71
2022/12/13 12:57:43;;;;;;;10.60;5.55;;;14.90;34.10;;;;;;6184457;23;45262;-71